sensor_id;sensor_type;location;lat;lon;timestamp;pressure;altitude;pressure_sealevel;temperature;humidity
22651;BME280;11492;42.646;23.400;2022-11-03T00:01:09;95556.31;;;15.24;45.82
22651;BME280;11492;42.646;23.400;2022-11-03T00:03:35;95545.47;;;15.14;46.34
22651;BME280;11492;42.646;23.400;2022-11-03T00:06:01;95543.25;;;15.11;46.33
22651;BME280;11492;42.646;23.400;2022-11-03T00:08:36;95552.03;;;15.10;46.26
22651;BME280;11492;42.646;23.400;2022-11-03T00:11:09;95555.84;;;15.08;47.00
22651;BME280;11492;42.646;23.400;2022-11-03T00:13:36;95560.25;;;15.07;46.71
22651;BME280;11492;42.646;23.400;2022-11-03T00:16:03;95546.00;;;15.03;47.09
22651;BME280;11492;42.646;23.400;2022-11-03T00:18:28;95548.41;;;15.05;46.85
22651;BME280;11492;42.646;23.400;2022-11-03T00:21:02;95558.47;;;15.14;47.01
22651;BME280;11492;42.646;23.400;2022-11-03T00:23:30;95567.56;;;15.31;47.24
22651;BME280;11492;42.646;23.400;2022-11-03T00:26:26;95562.97;;;15.33;46.22
22651;BME280;11492;42.646;23.400;2022-11-03T00:28:56;95553.94;;;15.29;45.49
22651;BME280;11492;42.646;23.400;2022-11-03T00:31:26;95569.56;;;15.35;45.10
22651;BME280;11492;42.646;23.400;2022-11-03T00:33:53;95547.91;;;15.22;45.40
22651;BME280;11492;42.646;23.400;2022-11-03T00:36:27;95547.91;;;15.22;44.93
22651;BME280;11492;42.646;23.400;2022-11-03T00:38:53;95555.28;;;15.19;45.40
22651;BME280;11492;42.646;23.400;2022-11-03T00:41:20;95571.94;;;15.30;45.95
22651;BME280;11492;42.646;23.400;2022-11-03T00:43:46;95556.47;;;15.16;45.21
22651;BME280;11492;42.646;23.400;2022-11-03T00:46:12;95575.13;;;15.26;45.90
22651;BME280;11492;42.646;23.400;2022-11-03T00:48:38;95559.06;;;15.16;45.63
22651;BME280;11492;42.646;23.400;2022-11-03T00:51:17;95578.69;;;15.12;45.14
22651;BME280;11492;42.646;23.400;2022-11-03T00:56:11;95576.88;;;15.13;45.49
22651;BME280;11492;42.646;23.400;2022-11-03T00:58:39;95577.06;;;15.11;45.69
22651;BME280;11492;42.646;23.400;2022-11-03T01:01:14;95564.56;;;15.00;45.40
22651;BME280;11492;42.646;23.400;2022-11-03T01:03:41;95579.81;;;15.03;44.87
22651;BME280;11492;42.646;23.400;2022-11-03T01:06:26;95585.75;;;14.97;45.26
22651;BME280;11492;42.646;23.400;2022-11-03T01:09:10;95581.78;;;15.01;44.82
22651;BME280;11492;42.646;23.400;2022-11-03T01:11:35;95567.28;;;14.86;45.11
22651;BME280;11492;42.646;23.400;2022-11-03T01:14:12;95582.94;;;14.93;45.42
22651;BME280;11492;42.646;23.400;2022-11-03T01:16:39;95570.88;;;14.85;45.33
22651;BME280;11492;42.646;23.400;2022-11-03T01:19:05;95573.66;;;14.84;45.71
22651;BME280;11492;42.646;23.400;2022-11-03T01:21:31;95576.81;;;14.79;45.74
22651;BME280;11492;42.646;23.400;2022-11-03T01:23:59;95576.19;;;14.71;45.58
22651;BME280;11492;42.646;23.400;2022-11-03T01:26:26;95570.53;;;14.68;45.93
22651;BME280;11492;42.646;23.400;2022-11-03T01:28:52;95569.94;;;14.66;46.35
22651;BME280;11492;42.646;23.400;2022-11-03T01:31:20;95560.91;;;14.62;46.52
22651;BME280;11492;42.646;23.400;2022-11-03T01:33:51;95569.50;;;14.62;45.95
22651;BME280;11492;42.646;23.400;2022-11-03T01:36:17;95565.13;;;14.63;46.41
22651;BME280;11492;42.646;23.400;2022-11-03T01:38:43;95569.91;;;14.59;46.62
22651;BME280;11492;42.646;23.400;2022-11-03T01:41:13;95577.50;;;14.61;46.80
22651;BME280;11492;42.646;23.400;2022-11-03T01:43:40;95583.06;;;14.58;46.47
22651;BME280;11492;42.646;23.400;2022-11-03T01:46:26;95583.06;;;14.58;47.03
22651;BME280;11492;42.646;23.400;2022-11-03T01:48:59;95570.16;;;14.44;46.65
22651;BME280;11492;42.646;23.400;2022-11-03T01:51:28;95581.66;;;14.55;46.42
22651;BME280;11492;42.646;23.400;2022-11-03T01:53:57;95583.09;;;14.64;46.78
22651;BME280;11492;42.646;23.400;2022-11-03T01:56:25;95587.13;;;14.67;47.58
22651;BME280;11492;42.646;23.400;2022-11-03T01:58:53;95587.25;;;14.59;46.98
22651;BME280;11492;42.646;23.400;2022-11-03T02:01:20;95590.31;;;14.62;46.94
22651;BME280;11492;42.646;23.400;2022-11-03T02:03:50;95584.09;;;14.63;47.56
22651;BME280;11492;42.646;23.400;2022-11-03T02:06:18;95585.94;;;14.69;47.55
22651;BME280;11492;42.646;23.400;2022-11-03T02:08:50;95586.19;;;14.74;47.85
22651;BME280;11492;42.646;23.400;2022-11-03T02:11:17;95580.75;;;14.69;48.11
22651;BME280;11492;42.646;23.400;2022-11-03T02:14:01;95578.34;;;14.68;47.52
22651;BME280;11492;42.646;23.400;2022-11-03T02:16:30;95574.19;;;14.73;48.44
22651;BME280;11492;42.646;23.400;2022-11-03T02:18:57;95586.72;;;14.63;48.57
22651;BME280;11492;42.646;23.400;2022-11-03T02:21:28;95583.69;;;14.60;49.01
22651;BME280;11492;42.646;23.400;2022-11-03T02:24:30;95586.81;;;14.76;48.94
22651;BME280;11492;42.646;23.400;2022-11-03T02:26:58;95580.63;;;14.77;48.96
22651;BME280;11492;42.646;23.400;2022-11-03T02:29:25;95575.63;;;14.75;48.62
22651;BME280;11492;42.646;23.400;2022-11-03T02:32:07;95579.84;;;14.83;49.06
22651;BME280;11492;42.646;23.400;2022-11-03T02:35:04;95572.53;;;14.93;50.60
22651;BME280;11492;42.646;23.400;2022-11-03T02:37:35;95571.31;;;14.95;50.13
22651;BME280;11492;42.646;23.400;2022-11-03T02:40:14;95565.69;;;14.85;48.45
22651;BME280;11492;42.646;23.400;2022-11-03T02:42:45;95579.34;;;15.00;48.49
22651;BME280;11492;42.646;23.400;2022-11-03T02:45:14;95591.47;;;15.07;48.56
22651;BME280;11492;42.646;23.400;2022-11-03T02:47:42;95585.63;;;15.05;48.65
22651;BME280;11492;42.646;23.400;2022-11-03T02:50:07;95578.66;;;15.06;47.43
22651;BME280;11492;42.646;23.400;2022-11-03T02:52:46;95585.03;;;15.03;47.96
22651;BME280;11492;42.646;23.400;2022-11-03T02:58:26;95586.19;;;15.01;48.43
22651;BME280;11492;42.646;23.400;2022-11-03T03:01:45;95583.94;;;14.92;48.36
22651;BME280;11492;42.646;23.400;2022-11-03T03:04:00;95575.63;;;14.75;48.77
22651;BME280;11492;42.646;23.400;2022-11-03T03:06:35;95578.78;;;14.71;49.41
22651;BME280;11492;42.646;23.400;2022-11-03T03:09:06;95578.53;;;14.66;49.69
22651;BME280;11492;42.646;23.400;2022-11-03T03:11:34;95577.78;;;14.45;50.19
22651;BME280;11492;42.646;23.400;2022-11-03T03:14:13;95586.63;;;14.30;51.12
22651;BME280;11492;42.646;23.400;2022-11-03T03:17:03;95579.44;;;14.52;50.60
22651;BME280;11492;42.646;23.400;2022-11-03T03:19:44;95586.31;;;14.60;50.81
22651;BME280;11492;42.646;23.400;2022-11-03T03:25:33;95577.34;;;14.69;50.62
22651;BME280;11492;42.646;23.400;2022-11-03T03:28:10;95577.78;;;14.72;51.01
22651;BME280;11492;42.646;23.400;2022-11-03T03:30:41;95579.19;;;14.74;51.50
22651;BME280;11492;42.646;23.400;2022-11-03T03:33:08;95581.78;;;14.74;51.41
22651;BME280;11492;42.646;23.400;2022-11-03T03:35:37;95583.03;;;14.78;51.72
22651;BME280;11492;42.646;23.400;2022-11-03T03:38:07;95585.81;;;14.77;51.53
22651;BME280;11492;42.646;23.400;2022-11-03T03:40:36;95589.19;;;14.71;51.52
22651;BME280;11492;42.646;23.400;2022-11-03T03:43:05;95586.75;;;14.70;51.58
22651;BME280;11492;42.646;23.400;2022-11-03T03:45:33;95578.50;;;14.60;51.69
22651;BME280;11492;42.646;23.400;2022-11-03T03:47:59;95594.75;;;14.68;51.51
22651;BME280;11492;42.646;23.400;2022-11-03T03:50:27;95592.91;;;14.62;51.57
22651;BME280;11492;42.646;23.400;2022-11-03T03:52:57;95595.25;;;14.57;51.85
22651;BME280;11492;42.646;23.400;2022-11-03T03:55:37;95595.41;;;14.49;52.10
22651;BME280;11492;42.646;23.400;2022-11-03T03:58:04;95590.88;;;14.37;52.01
22651;BME280;11492;42.646;23.400;2022-11-03T04:00:30;95594.50;;;14.36;52.21
22651;BME280;11492;42.646;23.400;2022-11-03T04:02:56;95603.22;;;14.29;52.74
22651;BME280;11492;42.646;23.400;2022-11-03T04:05:23;95597.59;;;14.25;52.83
22651;BME280;11492;42.646;23.400;2022-11-03T04:07:48;95593.09;;;14.13;52.96
22651;BME280;11492;42.646;23.400;2022-11-03T04:10:19;95596.84;;;14.11;52.67
22651;BME280;11492;42.646;23.400;2022-11-03T04:12:46;95597.69;;;13.97;52.88
22651;BME280;11492;42.646;23.400;2022-11-03T04:15:30;95598.72;;;13.82;53.40
22651;BME280;11492;42.646;23.400;2022-11-03T04:18:15;95603.09;;;13.81;53.44
22651;BME280;11492;42.646;23.400;2022-11-03T04:21:04;95599.06;;;13.79;53.43
22651;BME280;11492;42.646;23.400;2022-11-03T04:23:48;95598.38;;;13.70;54.05
22651;BME280;11492;42.646;23.400;2022-11-03T04:26:15;95597.69;;;13.62;53.74
22651;BME280;11492;42.646;23.400;2022-11-03T04:28:42;95594.28;;;13.62;54.16
22651;BME280;11492;42.646;23.400;2022-11-03T04:31:15;95594.59;;;13.52;53.68
22651;BME280;11492;42.646;23.400;2022-11-03T04:33:42;95572.06;;;13.39;54.22
22651;BME280;11492;42.646;23.400;2022-11-03T04:36:28;95592.00;;;13.38;54.69
22651;BME280;11492;42.646;23.400;2022-11-03T04:38:53;95590.66;;;13.28;54.53
22651;BME280;11492;42.646;23.400;2022-11-03T04:41:22;95589.25;;;13.25;55.09
22651;BME280;11492;42.646;23.400;2022-11-03T04:43:49;95570.56;;;13.01;54.94
22651;BME280;11492;42.646;23.400;2022-11-03T04:46:23;95597.13;;;13.03;55.20
22651;BME280;11492;42.646;23.400;2022-11-03T04:48:49;95599.72;;;13.03;55.87
22651;BME280;11492;42.646;23.400;2022-11-03T04:51:16;95579.06;;;12.96;54.98
22651;BME280;11492;42.646;23.400;2022-11-03T04:53:55;95577.91;;;12.84;55.32
22651;BME280;11492;42.646;23.400;2022-11-03T04:56:23;95591.56;;;12.78;55.95
22651;BME280;11492;42.646;23.400;2022-11-03T04:58:50;95602.75;;;12.78;55.96
22651;BME280;11492;42.646;23.400;2022-11-03T05:01:18;95600.22;;;12.71;56.21
22651;BME280;11492;42.646;23.400;2022-11-03T05:03:47;95596.34;;;12.67;56.41
22651;BME280;11492;42.646;23.400;2022-11-03T05:06:19;95590.63;;;12.57;55.46
22651;BME280;11492;42.646;23.400;2022-11-03T05:08:48;95605.34;;;12.56;56.29
22651;BME280;11492;42.646;23.400;2022-11-03T05:11:18;95604.47;;;12.49;56.81
22651;BME280;11492;42.646;23.400;2022-11-03T05:13:45;95605.34;;;12.42;57.37
22651;BME280;11492;42.646;23.400;2022-11-03T05:16:11;95608.47;;;12.52;57.35
22651;BME280;11492;42.646;23.400;2022-11-03T05:18:39;95612.50;;;12.54;56.86
22651;BME280;11492;42.646;23.400;2022-11-03T05:21:12;95614.00;;;12.49;57.04
22651;BME280;11492;42.646;23.400;2022-11-03T05:23:42;95615.16;;;12.46;57.00
22651;BME280;11492;42.646;23.400;2022-11-03T05:26:35;95624.19;;;12.50;57.69
22651;BME280;11492;42.646;23.400;2022-11-03T05:29:03;95619.00;;;12.50;57.27
22651;BME280;11492;42.646;23.400;2022-11-03T05:31:34;95616.41;;;12.50;57.61
22651;BME280;11492;42.646;23.400;2022-11-03T05:34:05;95623.84;;;12.53;57.95
22651;BME280;11492;42.646;23.400;2022-11-03T05:36:36;95632.84;;;12.57;57.59
22651;BME280;11492;42.646;23.400;2022-11-03T05:39:27;95632.84;;;12.57;57.67
22651;BME280;11492;42.646;23.400;2022-11-03T05:41:55;95633.97;;;12.63;58.12
22651;BME280;11492;42.646;23.400;2022-11-03T05:44:33;95637.59;;;12.76;57.46
22651;BME280;11492;42.646;23.400;2022-11-03T05:47:02;95635.09;;;12.82;57.42
22651;BME280;11492;42.646;23.400;2022-11-03T05:49:28;95643.06;;;12.95;57.83
22651;BME280;11492;42.646;23.400;2022-11-03T05:51:54;95643.78;;;13.03;56.64
22651;BME280;11492;42.646;23.400;2022-11-03T05:54:28;95650.78;;;13.17;57.05
22651;BME280;11492;42.646;23.400;2022-11-03T05:56:56;95648.78;;;13.19;56.58
22651;BME280;11492;42.646;23.400;2022-11-03T05:59:27;95655.06;;;13.24;56.66
22651;BME280;11492;42.646;23.400;2022-11-03T06:01:54;95655.16;;;13.31;56.66
22651;BME280;11492;42.646;23.400;2022-11-03T06:04:32;95660.78;;;13.34;56.43
22651;BME280;11492;42.646;23.400;2022-11-03T06:07:02;95663.66;;;13.39;56.50
22651;BME280;11492;42.646;23.400;2022-11-03T06:09:32;95663.91;;;13.44;55.98
22651;BME280;11492;42.646;23.400;2022-11-03T06:12:00;95661.78;;;13.47;55.69
22651;BME280;11492;42.646;23.400;2022-11-03T06:14:29;95661.41;;;13.50;56.13
22651;BME280;11492;42.646;23.400;2022-11-03T06:17:44;95663.91;;;13.58;56.41
22651;BME280;11492;42.646;23.400;2022-11-03T06:19:46;95658.72;;;13.58;55.70
22651;BME280;11492;42.646;23.400;2022-11-03T06:24:47;95669.44;;;13.84;55.74
22651;BME280;11492;42.646;23.400;2022-11-03T06:27:23;95671.56;;;13.95;55.35
22651;BME280;11492;42.646;23.400;2022-11-03T06:29:59;95680.16;;;14.09;54.97
22651;BME280;11492;42.646;23.400;2022-11-03T06:32:25;95665.06;;;14.19;54.32
22651;BME280;11492;42.646;23.400;2022-11-03T06:34:56;95674.84;;;14.38;54.56
22651;BME280;11492;42.646;23.400;2022-11-03T06:37:41;95681.78;;;14.51;53.92
22651;BME280;11492;42.646;23.400;2022-11-03T06:42:38;95681.56;;;14.73;53.68
22651;BME280;11492;42.646;23.400;2022-11-03T06:45:21;95681.16;;;14.91;53.68
22651;BME280;11492;42.646;23.400;2022-11-03T06:47:48;95671.34;;;14.93;52.83
22651;BME280;11492;42.646;23.400;2022-11-03T06:50:32;95684.94;;;15.15;52.31
22651;BME280;11492;42.646;23.400;2022-11-03T06:53:01;95682.81;;;15.25;52.86
22651;BME280;11492;42.646;23.400;2022-11-03T06:55:29;95677.88;;;15.36;51.34
22651;BME280;11492;42.646;23.400;2022-11-03T06:58:43;95678.53;;;15.45;51.53
22651;BME280;11492;42.646;23.400;2022-11-03T07:00:51;95669.97;;;15.50;51.06
22651;BME280;11492;42.646;23.400;2022-11-03T07:03:28;95673.84;;;15.67;50.80
22651;BME280;11492;42.646;23.400;2022-11-03T07:06:01;95669.09;;;15.77;50.60
22651;BME280;11492;42.646;23.400;2022-11-03T07:08:31;95673.97;;;15.93;50.45
22651;BME280;11492;42.646;23.400;2022-11-03T07:11:25;95656.38;;;16.01;50.45
22651;BME280;11492;42.646;23.400;2022-11-03T07:13:56;95663.28;;;16.21;50.29
22651;BME280;11492;42.646;23.400;2022-11-03T07:16:35;95670.97;;;16.35;50.71
22651;BME280;11492;42.646;23.400;2022-11-03T07:19:09;95661.94;;;16.44;49.81
22651;BME280;11492;42.646;23.400;2022-11-03T07:21:51;95667.78;;;16.59;50.21
22651;BME280;11492;42.646;23.400;2022-11-03T07:24:20;95654.75;;;16.65;50.15
22651;BME280;11492;42.646;23.400;2022-11-03T07:26:48;95659.56;;;16.74;50.27
22651;BME280;11492;42.646;23.400;2022-11-03T07:29:20;95659.19;;;16.77;50.05
22651;BME280;11492;42.646;23.400;2022-11-03T07:31:50;95663.38;;;16.91;49.64
22651;BME280;11492;42.646;23.400;2022-11-03T07:34:21;95665.81;;;17.05;49.55
22651;BME280;11492;42.646;23.400;2022-11-03T07:36:49;95665.00;;;17.18;49.16
22651;BME280;11492;42.646;23.400;2022-11-03T07:39:17;95658.56;;;17.26;49.04
22651;BME280;11492;42.646;23.400;2022-11-03T07:41:43;95648.94;;;17.40;48.79
22651;BME280;11492;42.646;23.400;2022-11-03T07:44:18;95655.13;;;17.51;48.78
22651;BME280;11492;42.646;23.400;2022-11-03T07:46:48;95655.72;;;17.60;48.81
22651;BME280;11492;42.646;23.400;2022-11-03T07:49:23;95646.84;;;17.67;48.58
22651;BME280;11492;42.646;23.400;2022-11-03T07:51:51;95653.81;;;17.86;48.19
22651;BME280;11492;42.646;23.400;2022-11-03T07:54:20;95652.56;;;17.95;47.72
22651;BME280;11492;42.646;23.400;2022-11-03T07:56:52;95642.91;;;17.95;47.90
22651;BME280;11492;42.646;23.400;2022-11-03T07:59:22;95653.09;;;18.16;47.88
22651;BME280;11492;42.646;23.400;2022-11-03T08:01:52;95641.66;;;18.84;46.07
22651;BME280;11492;42.646;23.400;2022-11-03T08:04:25;95638.72;;;20.86;42.86
22651;BME280;11492;42.646;23.400;2022-11-03T08:06:51;95634.84;;;22.78;38.61
22651;BME280;11492;42.646;23.400;2022-11-03T08:09:17;95628.59;;;24.02;36.27
22651;BME280;11492;42.646;23.400;2022-11-03T08:11:44;95622.97;;;25.14;34.30
22651;BME280;11492;42.646;23.400;2022-11-03T08:14:09;95613.38;;;25.39;33.86
22651;BME280;11492;42.646;23.400;2022-11-03T08:16:35;95614.28;;;25.95;32.99
22651;BME280;11492;42.646;23.400;2022-11-03T08:19:01;95610.44;;;26.97;31.65
22651;BME280;11492;42.646;23.400;2022-11-03T08:21:26;95602.19;;;27.87;30.56
22651;BME280;11492;42.646;23.400;2022-11-03T08:23:52;95601.81;;;28.75;29.10
22651;BME280;11492;42.646;23.400;2022-11-03T08:26:17;95606.03;;;29.24;28.18
22651;BME280;11492;42.646;23.400;2022-11-03T08:28:43;95607.69;;;29.48;27.60
22651;BME280;11492;42.646;23.400;2022-11-03T08:31:08;95610.84;;;29.50;28.15
22651;BME280;11492;42.646;23.400;2022-11-03T08:33:34;95597.47;;;29.87;27.75
22651;BME280;11492;42.646;23.400;2022-11-03T08:36:01;95608.50;;;30.27;27.07
22651;BME280;11492;42.646;23.400;2022-11-03T08:38:27;95603.50;;;30.44;26.99
22651;BME280;11492;42.646;23.400;2022-11-03T08:40:54;95604.88;;;31.01;26.27
22651;BME280;11492;42.646;23.400;2022-11-03T08:43:20;95604.88;;;30.83;26.44
22651;BME280;11492;42.646;23.400;2022-11-03T08:45:46;95607.78;;;30.86;26.43
22651;BME280;11492;42.646;23.400;2022-11-03T08:48:12;95608.47;;;30.73;26.60
22651;BME280;11492;42.646;23.400;2022-11-03T08:50:38;95604.94;;;30.78;26.86
22651;BME280;11492;42.646;23.400;2022-11-03T08:53:03;95611.13;;;30.73;26.67
22651;BME280;11492;42.646;23.400;2022-11-03T08:55:29;95611.94;;;30.74;26.47
22651;BME280;11492;42.646;23.400;2022-11-03T08:57:54;95607.31;;;30.79;26.98
22651;BME280;11492;42.646;23.400;2022-11-03T09:00:20;95609.59;;;31.27;26.08
22651;BME280;11492;42.646;23.400;2022-11-03T09:02:46;95601.69;;;30.99;26.05
22651;BME280;11492;42.646;23.400;2022-11-03T09:05:12;95601.91;;;31.02;25.96
22651;BME280;11492;42.646;23.400;2022-11-03T09:07:38;95600.75;;;31.08;26.32
22651;BME280;11492;42.646;23.400;2022-11-03T09:10:06;95600.75;;;30.72;26.60
22651;BME280;11492;42.646;23.400;2022-11-03T09:12:32;95602.41;;;30.68;26.68
22651;BME280;11492;42.646;23.400;2022-11-03T09:14:57;95598.66;;;30.69;26.93
22651;BME280;11492;42.646;23.400;2022-11-03T09:17:23;95590.97;;;30.21;27.41
22651;BME280;11492;42.646;23.400;2022-11-03T09:19:48;95592.59;;;29.94;27.68
22651;BME280;11492;42.646;23.400;2022-11-03T09:22:14;95577.91;;;29.74;27.59
22651;BME280;11492;42.646;23.400;2022-11-03T09:24:39;95592.50;;;29.81;28.24
22651;BME280;11492;42.646;23.400;2022-11-03T09:27:05;95582.63;;;30.05;27.67
22651;BME280;11492;42.646;23.400;2022-11-03T09:29:30;95580.84;;;30.23;27.43
22651;BME280;11492;42.646;23.400;2022-11-03T09:31:55;95576.19;;;30.33;27.03
22651;BME280;11492;42.646;23.400;2022-11-03T09:34:21;95573.50;;;30.10;27.10
22651;BME280;11492;42.646;23.400;2022-11-03T09:36:46;95567.81;;;29.94;27.15
22651;BME280;11492;42.646;23.400;2022-11-03T09:39:12;95562.53;;;29.89;27.46
22651;BME280;11492;42.646;23.400;2022-11-03T09:41:37;95569.09;;;29.96;27.64
22651;BME280;11492;42.646;23.400;2022-11-03T09:44:03;95554.28;;;30.13;27.45
22651;BME280;11492;42.646;23.400;2022-11-03T09:46:29;95564.84;;;30.23;27.18
22651;BME280;11492;42.646;23.400;2022-11-03T09:48:55;95554.72;;;30.98;26.61
22651;BME280;11492;42.646;23.400;2022-11-03T09:51:22;95552.91;;;30.93;26.22
22651;BME280;11492;42.646;23.400;2022-11-03T09:53:48;95549.34;;;30.84;26.01
22651;BME280;11492;42.646;23.400;2022-11-03T09:56:18;95547.06;;;30.55;26.63
22651;BME280;11492;42.646;23.400;2022-11-03T09:58:45;95536.59;;;31.31;26.32
22651;BME280;11492;42.646;23.400;2022-11-03T10:01:11;95541.19;;;31.57;25.56
22651;BME280;11492;42.646;23.400;2022-11-03T10:03:37;95537.03;;;31.20;25.64
22651;BME280;11492;42.646;23.400;2022-11-03T10:06:03;95533.03;;;30.86;26.10
22651;BME280;11492;42.646;23.400;2022-11-03T10:08:30;95526.31;;;31.38;25.38
22651;BME280;11492;42.646;23.400;2022-11-03T10:10:58;95519.16;;;31.65;25.97
22651;BME280;11492;42.646;23.400;2022-11-03T10:13:34;95507.19;;;32.15;24.70
22651;BME280;11492;42.646;23.400;2022-11-03T10:16:02;95517.47;;;32.08;24.79
22651;BME280;11492;42.646;23.400;2022-11-03T10:18:29;95510.09;;;32.54;24.36
22651;BME280;11492;42.646;23.400;2022-11-03T10:20:57;95511.66;;;33.24;23.89
22651;BME280;11492;42.646;23.400;2022-11-03T10:23:25;95505.13;;;33.60;23.71
22651;BME280;11492;42.646;23.400;2022-11-03T10:25:50;95495.47;;;33.29;23.46
22651;BME280;11492;42.646;23.400;2022-11-03T10:28:23;95486.09;;;33.18;23.40
22651;BME280;11492;42.646;23.400;2022-11-03T10:30:59;95483.94;;;33.07;24.32
22651;BME280;11492;42.646;23.400;2022-11-03T10:33:39;95481.81;;;33.39;23.62
22651;BME280;11492;42.646;23.400;2022-11-03T10:36:25;95487.53;;;33.24;23.60
22651;BME280;11492;42.646;23.400;2022-11-03T10:38:51;95483.63;;;33.09;23.32
22651;BME280;11492;42.646;23.400;2022-11-03T10:41:23;95473.81;;;33.17;23.21
22651;BME280;11492;42.646;23.400;2022-11-03T10:46:37;95468.78;;;34.47;22.25
22651;BME280;11492;42.646;23.400;2022-11-03T10:51:28;95455.00;;;35.32;20.18
22651;BME280;11492;42.646;23.400;2022-11-03T10:53:54;95441.88;;;35.47;20.03
22651;BME280;11492;42.646;23.400;2022-11-03T10:56:20;95448.59;;;34.58;20.05
22651;BME280;11492;42.646;23.400;2022-11-03T10:58:45;95439.25;;;34.72;20.50
22651;BME280;11492;42.646;23.400;2022-11-03T11:01:11;95435.50;;;35.43;19.78
22651;BME280;11492;42.646;23.400;2022-11-03T11:03:41;95433.28;;;35.99;18.92
22651;BME280;11492;42.646;23.400;2022-11-03T11:06:23;95424.75;;;36.45;18.32
22651;BME280;11492;42.646;23.400;2022-11-03T11:08:51;95416.63;;;37.06;18.27
22651;BME280;11492;42.646;23.400;2022-11-03T11:11:20;95423.78;;;37.77;17.53
22651;BME280;11492;42.646;23.400;2022-11-03T11:19:16;95409.75;;;38.96;16.82
22651;BME280;11492;42.646;23.400;2022-11-03T11:24:10;95406.69;;;39.82;16.26
22651;BME280;11492;42.646;23.400;2022-11-03T11:26:36;95409.22;;;39.91;15.99
22651;BME280;11492;42.646;23.400;2022-11-03T11:31:35;95406.81;;;40.69;15.87
22651;BME280;11492;42.646;23.400;2022-11-03T11:36:40;95395.09;;;40.16;15.22
22651;BME280;11492;42.646;23.400;2022-11-03T11:47:42;95383.59;;;41.08;15.19
22651;BME280;11492;42.646;23.400;2022-11-03T11:52:42;95377.16;;;41.57;14.79
22651;BME280;11492;42.646;23.400;2022-11-03T11:55:29;95370.03;;;40.71;15.22
22651;BME280;11492;42.646;23.400;2022-11-03T11:57:55;95364.31;;;41.13;15.11
22651;BME280;11492;42.646;23.400;2022-11-03T12:00:28;95363.53;;;40.57;15.44
22651;BME280;11492;42.646;23.400;2022-11-03T12:02:54;95360.97;;;40.82;15.31
22651;BME280;11492;42.646;23.400;2022-11-03T12:05:25;95352.53;;;41.06;14.89
22651;BME280;11492;42.646;23.400;2022-11-03T12:07:53;95356.03;;;41.06;15.19
22651;BME280;11492;42.646;23.400;2022-11-03T12:10:22;95352.19;;;41.07;15.57
22651;BME280;11492;42.646;23.400;2022-11-03T12:12:50;95348.09;;;41.35;14.64
22651;BME280;11492;42.646;23.400;2022-11-03T12:21:04;95337.00;;;40.84;15.27
22651;BME280;11492;42.646;23.400;2022-11-03T12:26:12;95335.97;;;41.11;14.67
22651;BME280;11492;42.646;23.400;2022-11-03T12:28:38;95332.84;;;41.53;15.07
22651;BME280;11492;42.646;23.400;2022-11-03T12:31:04;95326.56;;;41.49;14.98
22651;BME280;11492;42.646;23.400;2022-11-03T12:33:29;95331.72;;;41.54;14.66
22651;BME280;11492;42.646;23.400;2022-11-03T12:35:55;95331.03;;;41.82;14.07
22651;BME280;11492;42.646;23.400;2022-11-03T12:38:22;95331.38;;;42.06;14.20
22651;BME280;11492;42.646;23.400;2022-11-03T12:40:48;95322.88;;;42.08;14.34
22651;BME280;11492;42.646;23.400;2022-11-03T12:43:13;95329.81;;;42.05;14.12
22651;BME280;11492;42.646;23.400;2022-11-03T12:45:39;95321.28;;;42.07;14.65
22651;BME280;11492;42.646;23.400;2022-11-03T12:48:06;95314.06;;;42.14;13.73
22651;BME280;11492;42.646;23.400;2022-11-03T12:50:32;95320.66;;;42.13;14.01
22651;BME280;11492;42.646;23.400;2022-11-03T12:52:57;95303.38;;;41.33;14.61
22651;BME280;11492;42.646;23.400;2022-11-03T12:55:23;95309.97;;;41.10;14.38
22651;BME280;11492;42.646;23.400;2022-11-03T12:57:48;95299.31;;;40.79;14.78
22651;BME280;11492;42.646;23.400;2022-11-03T13:00:14;95307.91;;;41.03;14.55
22651;BME280;11492;42.646;23.400;2022-11-03T13:02:39;95297.13;;;41.07;14.88
22651;BME280;11492;42.646;23.400;2022-11-03T13:05:05;95307.06;;;41.22;14.60
22651;BME280;11492;42.646;23.400;2022-11-03T13:07:31;95299.91;;;41.10;14.66
22651;BME280;11492;42.646;23.400;2022-11-03T13:09:56;95295.72;;;40.75;14.48
22651;BME280;11492;42.646;23.400;2022-11-03T13:12:22;95294.78;;;40.31;15.22
22651;BME280;11492;42.646;23.400;2022-11-03T13:14:57;95303.69;;;40.13;15.46
22651;BME280;11492;42.646;23.400;2022-11-03T13:17:24;95291.28;;;39.78;15.52
22651;BME280;11492;42.646;23.400;2022-11-03T13:19:50;95290.31;;;38.52;15.96
22651;BME280;11492;42.646;23.400;2022-11-03T13:22:15;95296.19;;;36.98;17.32
22651;BME280;11492;42.646;23.400;2022-11-03T13:24:41;95296.19;;;35.37;18.18
22651;BME280;11492;42.646;23.400;2022-11-03T13:27:06;95286.41;;;34.09;18.90
22651;BME280;11492;42.646;23.400;2022-11-03T13:29:32;95292.41;;;32.88;20.27
22651;BME280;11492;42.646;23.400;2022-11-03T13:31:57;95285.91;;;31.73;21.08
22651;BME280;11492;42.646;23.400;2022-11-03T13:34:23;95282.50;;;30.80;21.69
22651;BME280;11492;42.646;23.400;2022-11-03T13:36:48;95290.28;;;29.82;22.40
22651;BME280;11492;42.646;23.400;2022-11-03T13:39:13;95288.22;;;29.20;23.58
22651;BME280;11492;42.646;23.400;2022-11-03T13:41:39;95285.31;;;28.70;24.30
22651;BME280;11492;42.646;23.400;2022-11-03T13:44:04;95277.53;;;28.23;24.61
22651;BME280;11492;42.646;23.400;2022-11-03T13:46:30;95281.34;;;27.79;25.30
22651;BME280;11492;42.646;23.400;2022-11-03T13:48:55;95291.94;;;27.41;26.52
22651;BME280;11492;42.646;23.400;2022-11-03T13:51:20;95276.97;;;27.07;26.52
22651;BME280;11492;42.646;23.400;2022-11-03T13:53:46;95279.44;;;26.79;27.02
22651;BME280;11492;42.646;23.400;2022-11-03T13:56:12;95276.63;;;26.47;27.26